createdAt,value
2022-08-01T00:00:04.766Z,6.97
2022-08-01T00:02:32.376Z,7.45
2022-08-01T00:05:01.132Z,31.35
2022-08-01T00:07:28.296Z,42.08
2022-08-01T00:09:55.471Z,16.35
2022-08-01T00:12:22.622Z,5.72
2022-08-01T00:14:49.758Z,9.02
2022-08-01T00:17:17.082Z,12.65
2022-08-01T00:19:44.234Z,44.53
2022-08-01T00:22:11.441Z,14.02
2022-08-01T00:24:38.575Z,9.80
2022-08-01T00:27:05.817Z,6.47
2022-08-01T00:30:12.431Z,10.27
2022-08-01T00:32:20.157Z,13.18
2022-08-01T00:34:47.322Z,11.65
2022-08-01T00:37:16.077Z,14.10
2022-08-01T00:39:43.528Z,11.75
2022-08-01T00:42:11.227Z,10.13
2022-08-01T00:44:38.376Z,7.18
2022-08-01T00:47:05.798Z,7.05
2022-08-01T00:49:33.050Z,8.20
2022-08-01T00:52:00.230Z,6.22
2022-08-01T00:54:27.826Z,8.02
2022-08-01T00:56:55.532Z,7.80
2022-08-01T00:59:22.836Z,6.72
2022-08-01T01:01:50.442Z,5.88
2022-08-01T01:04:17.953Z,6.90
2022-08-01T01:06:51.071Z,6.55
2022-08-01T01:09:24.062Z,6.35
2022-08-01T01:11:57.457Z,7.10
2022-08-01T01:14:39.097Z,8.13
2022-08-01T01:17:08.341Z,5.80
2022-08-01T01:19:36.462Z,9.57
2022-08-01T01:22:10.025Z,7.18
2022-08-01T01:24:42.448Z,8.40
2022-08-01T01:27:15.495Z,6.32
2022-08-01T01:29:59.012Z,12.38
2022-08-01T01:32:35.375Z,6.38
2022-08-01T01:35:04.078Z,6.80
2022-08-01T01:37:31.202Z,10.73
2022-08-01T01:39:58.342Z,12.48
2022-08-01T01:42:25.802Z,17.65
2022-08-01T01:44:52.988Z,55.58
2022-08-01T01:47:20.138Z,74.47
2022-08-01T01:49:48.238Z,83.85
2022-08-01T01:52:15.606Z,134.73
2022-08-01T01:54:43.866Z,124.30
2022-08-01T01:57:10.976Z,135.65
2022-08-01T01:59:38.527Z,118.97
2022-08-01T02:02:06.899Z,112.18
2022-08-01T02:04:34.622Z,89.05
2022-08-01T02:07:02.282Z,72.03
2022-08-01T02:09:29.535Z,63.50
2022-08-01T02:12:09.371Z,41.53
2022-08-01T02:14:36.833Z,23.08
2022-08-01T02:17:05.220Z,24.25
2022-08-01T02:19:32.514Z,20.00
2022-08-01T02:22:09.727Z,18.00
2022-08-01T02:24:40.569Z,18.83
2022-08-01T02:27:09.341Z,21.48
2022-08-01T02:29:46.727Z,17.00
2022-08-01T02:32:14.476Z,13.75
2022-08-01T02:34:42.038Z,17.88
2022-08-01T02:37:09.173Z,23.75
2022-08-01T02:39:36.587Z,19.90
2022-08-01T02:42:04.988Z,17.30
2022-08-01T02:44:33.084Z,16.33
2022-08-01T02:47:03.391Z,13.00
2022-08-01T02:49:31.819Z,12.90
2022-08-01T02:51:58.994Z,15.10
2022-08-01T02:54:26.143Z,13.85
2022-08-01T02:56:53.265Z,14.32
2022-08-01T02:59:22.411Z,12.00
2022-08-01T03:01:49.853Z,12.00
2022-08-01T03:04:18.701Z,13.05
2022-08-01T03:06:45.846Z,15.63
2022-08-01T03:09:13.012Z,22.10
2022-08-01T03:11:41.361Z,20.70
2022-08-01T03:14:09.731Z,19.05
2022-08-01T03:16:37.622Z,19.20
2022-08-01T03:19:04.737Z,18.30
2022-08-01T03:21:31.851Z,18.83
2022-08-01T03:23:59.449Z,18.35
2022-08-01T03:26:30.348Z,26.50
2022-08-01T03:28:58.279Z,24.58
2022-08-01T03:31:26.096Z,23.65
2022-08-01T03:33:53.438Z,27.08
2022-08-01T03:36:21.761Z,22.65
2022-08-01T03:38:48.945Z,18.05
2022-08-01T03:41:21.988Z,20.20
2022-08-01T03:43:50.170Z,22.48
2022-08-01T03:46:24.495Z,22.08
2022-08-01T03:48:52.715Z,21.63
2022-08-01T03:51:19.938Z,17.27
2022-08-01T03:53:47.214Z,15.15
2022-08-01T03:56:14.582Z,14.77
2022-08-01T03:58:41.730Z,16.05
2022-08-01T04:01:15.623Z,17.85
2022-08-01T04:03:43.493Z,18.50
2022-08-01T04:06:11.552Z,16.20
2022-08-01T04:08:39.098Z,17.25
2022-08-01T04:11:06.277Z,15.80
2022-08-01T04:13:37.336Z,14.02
2022-08-01T04:16:05.683Z,16.30
2022-08-01T04:18:33.238Z,18.58
2022-08-01T04:21:00.384Z,18.35
2022-08-01T04:23:28.089Z,19.15
2022-08-01T04:25:55.276Z,16.50
2022-08-01T04:28:22.737Z,17.25
2022-08-01T04:30:49.891Z,17.75
2022-08-01T04:33:17.270Z,21.05
2022-08-01T04:36:01.909Z,21.20
2022-08-01T04:38:31.642Z,20.60
2022-08-01T04:40:58.788Z,22.42
2022-08-01T04:43:26.629Z,16.73
2022-08-01T04:45:53.825Z,13.57
2022-08-01T04:48:22.734Z,11.80
2022-08-01T04:50:50.229Z,11.25
2022-08-01T04:53:22.810Z,10.88
2022-08-01T04:55:49.931Z,13.07
2022-08-01T04:58:18.609Z,10.68
2022-08-01T05:00:46.181Z,10.80
2022-08-01T05:03:13.366Z,11.27
2022-08-01T05:05:40.498Z,11.02
2022-08-01T05:08:07.642Z,10.60
2022-08-01T05:10:35.112Z,10.57
2022-08-01T05:13:02.250Z,10.98
2022-08-01T05:15:29.425Z,10.43
2022-08-01T05:17:57.508Z,13.88
2022-08-01T05:20:24.641Z,13.38
2022-08-01T05:22:51.798Z,10.40
2022-08-01T05:25:19.872Z,10.45
2022-08-01T05:27:50.779Z,10.40
2022-08-01T05:30:18.448Z,8.63
2022-08-01T05:32:45.573Z,8.68
2022-08-01T05:35:12.881Z,8.20
2022-08-01T05:37:40.040Z,8.18
2022-08-01T05:40:07.419Z,6.75
2022-08-01T05:42:34.553Z,6.90
2022-08-01T05:45:01.704Z,7.10
2022-08-01T05:47:28.822Z,7.18
2022-08-01T05:49:55.994Z,5.75
2022-08-01T05:52:23.144Z,5.18
2022-08-01T05:54:50.297Z,5.03
2022-08-01T05:57:17.467Z,7.00
2022-08-01T05:59:44.613Z,6.03
2022-08-01T06:02:11.771Z,5.30
2022-08-01T06:04:38.938Z,5.30
2022-08-01T06:07:06.137Z,7.65
2022-08-01T06:09:33.461Z,5.30
2022-08-01T06:12:00.630Z,5.80
2022-08-01T06:14:27.867Z,5.63
2022-08-01T06:16:55.025Z,5.30
2022-08-01T06:19:22.155Z,5.45
2022-08-01T06:21:49.340Z,3.90
2022-08-01T06:24:16.519Z,6.00
2022-08-01T06:26:43.701Z,4.00
2022-08-01T06:29:10.843Z,3.05
2022-08-01T06:31:39.516Z,3.05
2022-08-01T06:34:06.640Z,3.17
2022-08-01T06:36:33.806Z,3.25
2022-08-01T06:39:00.937Z,3.50
2022-08-01T06:41:28.060Z,5.15
2022-08-01T06:43:55.292Z,2.70
2022-08-01T06:46:22.431Z,3.10
2022-08-01T06:48:49.675Z,4.18
2022-08-01T06:51:19.076Z,4.50
2022-08-01T06:53:46.186Z,4.78
2022-08-01T06:56:13.313Z,4.68
2022-08-01T06:58:40.466Z,4.70
2022-08-01T07:01:08.239Z,5.25
2022-08-01T07:03:54.494Z,3.95
2022-08-01T07:06:23.247Z,2.90
2022-08-01T07:08:50.429Z,3.80
2022-08-01T07:11:17.894Z,5.32
2022-08-01T07:13:46.740Z,3.97
2022-08-01T07:16:14.294Z,3.05
2022-08-01T07:18:41.506Z,3.40
2022-08-01T07:21:16.782Z,3.45
2022-08-01T07:23:56.040Z,2.95
2022-08-01T07:26:23.768Z,2.45
2022-08-01T07:28:50.891Z,4.78
2022-08-01T07:31:18.102Z,1.77
2022-08-01T07:33:49.019Z,2.25
2022-08-01T07:36:17.230Z,5.32
2022-08-01T07:38:44.515Z,3.35
2022-08-01T07:41:11.782Z,3.72
2022-08-01T07:43:39.080Z,1.92
2022-08-01T07:46:06.219Z,1.65
2022-08-01T07:48:33.354Z,2.17
2022-08-01T07:51:00.531Z,2.13
2022-08-01T07:53:27.653Z,1.52
2022-08-01T07:55:54.803Z,1.40
2022-08-01T07:58:22.018Z,2.35
2022-08-01T08:00:49.174Z,2.25
2022-08-01T08:03:16.337Z,2.05
2022-08-01T08:05:58.123Z,1.40
2022-08-01T08:08:28.633Z,4.05
2022-08-01T08:10:55.905Z,2.00
2022-08-01T08:13:23.209Z,5.20
2022-08-01T08:15:50.364Z,3.53
2022-08-01T08:18:17.535Z,1.77
2022-08-01T08:20:44.942Z,3.28
2022-08-01T08:23:42.596Z,2.05
2022-08-01T08:26:11.579Z,4.72
2022-08-01T08:28:38.723Z,1.50
2022-08-01T08:31:07.838Z,1.63
2022-08-01T08:33:52.958Z,3.40
2022-08-01T08:36:20.092Z,1.50
2022-08-01T08:38:47.224Z,2.75
2022-08-01T08:41:19.265Z,1.92
2022-08-01T08:43:48.208Z,1.25
2022-08-01T08:46:15.650Z,1.52
2022-08-01T08:48:42.815Z,1.88
2022-08-01T08:51:11.906Z,1.95
2022-08-01T08:53:40.247Z,1.80
2022-08-01T08:56:08.314Z,1.88
2022-08-01T08:58:38.536Z,17.75
2022-08-01T09:01:09.655Z,1.88
2022-08-01T09:03:36.924Z,2.90
2022-08-01T09:06:04.315Z,2.55
2022-08-01T09:08:31.498Z,1.55
2022-08-01T09:10:58.757Z,1.65
2022-08-01T09:13:25.902Z,2.28
2022-08-01T09:15:54.930Z,1.60
2022-08-01T09:18:41.209Z,1.40
2022-08-01T09:21:08.346Z,2.25
2022-08-01T09:23:36.131Z,1.90
2022-08-01T09:26:03.266Z,1.90
2022-08-01T09:28:31.045Z,1.45
2022-08-01T09:30:58.547Z,2.70
2022-08-01T09:33:25.724Z,1.45
2022-08-01T09:35:57.000Z,2.15
2022-08-01T09:38:24.771Z,1.58
2022-08-01T09:40:53.280Z,2.17
2022-08-01T09:43:20.970Z,5.32
2022-08-01T09:45:50.375Z,2.55
2022-08-01T09:48:18.202Z,2.90
2022-08-01T09:50:46.151Z,1.52
2022-08-01T09:53:24.450Z,5.22
2022-08-01T09:55:58.508Z,4.20
2022-08-01T09:58:25.619Z,2.00
2022-08-01T10:01:01.764Z,2.70
2022-08-01T10:03:30.538Z,1.60
2022-08-01T10:05:59.358Z,2.25
2022-08-01T10:08:27.220Z,1.42
2022-08-01T10:11:09.359Z,2.35
2022-08-01T10:13:39.633Z,1.73
2022-08-01T10:16:07.807Z,2.80
2022-08-01T10:18:35.613Z,2.88
2022-08-01T10:21:03.022Z,2.92
2022-08-01T10:23:40.816Z,2.45
2022-08-01T10:26:08.680Z,3.55
2022-08-01T10:28:36.644Z,1.55
2022-08-01T10:31:05.846Z,87.22
2022-08-01T10:33:52.042Z,4.32
2022-08-01T10:36:21.341Z,2.80
2022-08-01T10:38:49.987Z,1.83
2022-08-01T10:41:17.124Z,1.83
2022-08-01T10:43:45.649Z,2.10
2022-08-01T10:46:14.354Z,1.60
2022-08-01T10:49:00.397Z,3.67
2022-08-01T10:51:52.918Z,3.00
2022-08-01T10:54:15.501Z,3.88
2022-08-01T10:56:46.212Z,1.83
2022-08-01T10:59:16.361Z,3.67
2022-08-01T11:02:03.291Z,2.03
2022-08-01T11:04:49.346Z,1.73
2022-08-01T11:07:20.337Z,2.40
2022-08-01T11:10:00.925Z,1.88
2022-08-01T11:12:39.998Z,3.33
2022-08-01T11:15:08.896Z,2.45
2022-08-01T11:17:42.243Z,4.00
2022-08-01T11:20:10.050Z,2.88
2022-08-01T11:22:57.171Z,2.05
2022-08-01T11:26:03.370Z,2.03
2022-08-01T11:28:15.340Z,2.00
2022-08-01T11:30:42.885Z,2.00
2022-08-01T11:33:11.203Z,2.75
2022-08-01T11:35:40.276Z,2.20
2022-08-01T11:38:28.901Z,2.10
2022-08-01T11:41:14.728Z,2.35
2022-08-01T11:44:00.628Z,2.45
2022-08-01T11:46:48.603Z,3.40
2022-08-01T11:49:38.875Z,2.35
2022-08-01T11:52:10.401Z,2.80
2022-08-01T11:54:42.608Z,5.03
2022-08-01T11:57:13.711Z,2.17
2022-08-01T12:00:02.853Z,3.67
2022-08-01T12:02:37.747Z,3.75
2022-08-01T12:05:08.400Z,2.30
2022-08-01T12:07:38.890Z,2.03
2022-08-01T12:10:06.175Z,2.30
2022-08-01T12:12:33.625Z,3.92
2022-08-01T12:15:01.558Z,2.30
2022-08-01T12:17:31.520Z,2.92
2022-08-01T12:19:58.682Z,2.05
2022-08-01T12:22:29.030Z,3.70
2022-08-01T12:24:56.242Z,4.65
2022-08-01T12:27:26.883Z,2.92
2022-08-01T12:29:54.089Z,2.30
2022-08-01T12:32:27.798Z,2.58
2022-08-01T12:35:03.346Z,2.30
2022-08-01T12:37:30.489Z,2.67
2022-08-01T12:39:58.693Z,104.18
2022-08-01T12:42:25.995Z,3.97
2022-08-01T12:44:53.296Z,3.13
2022-08-01T12:47:21.265Z,2.67
2022-08-01T12:49:48.594Z,2.30
2022-08-01T12:52:15.759Z,2.20
2022-08-01T12:55:01.815Z,2.40
2022-08-01T12:57:29.002Z,3.03
2022-08-01T13:00:06.366Z,2.03
2022-08-01T13:02:34.268Z,2.47
2022-08-01T13:05:01.425Z,3.33
2022-08-01T13:07:45.428Z,4.10
2022-08-01T13:10:13.221Z,4.75
2022-08-01T13:12:40.975Z,3.22
2022-08-01T13:15:18.182Z,3.53
2022-08-01T13:17:45.402Z,2.53
2022-08-01T13:20:22.472Z,2.83
2022-08-01T13:22:49.647Z,2.40
2022-08-01T13:25:19.873Z,2.83
2022-08-01T13:27:53.570Z,2.53
2022-08-01T13:30:22.921Z,2.10
2022-08-01T13:32:59.699Z,4.30
2022-08-01T13:35:26.875Z,3.50
2022-08-01T13:37:54.038Z,2.70
2022-08-01T13:40:25.143Z,3.28
2022-08-01T13:42:52.280Z,3.53
2022-08-01T13:45:22.179Z,3.72
2022-08-01T13:48:12.006Z,38.42
2022-08-01T13:50:37.040Z,4.32
2022-08-01T13:53:04.199Z,3.28
2022-08-01T13:55:34.962Z,3.10
2022-08-01T13:58:03.886Z,2.78
2022-08-01T14:00:31.270Z,3.67
2022-08-01T14:02:58.408Z,2.75
2022-08-01T14:05:25.533Z,3.08
2022-08-01T14:07:56.761Z,6.82
2022-08-01T14:10:24.262Z,3.35
2022-08-01T14:12:51.430Z,3.80
2022-08-01T14:15:37.311Z,3.60
2022-08-01T14:18:06.265Z,3.75
2022-08-01T14:20:33.913Z,3.38
2022-08-01T14:23:01.118Z,3.38
2022-08-01T14:26:00.214Z,3.75
2022-08-01T14:28:15.449Z,3.40
2022-08-01T14:30:43.603Z,3.53
2022-08-01T14:33:11.300Z,5.38
2022-08-01T14:36:01.360Z,7.15
2022-08-01T14:38:31.294Z,4.82
2022-08-01T14:41:01.090Z,3.55
2022-08-01T14:43:33.218Z,4.60
2022-08-01T14:46:01.205Z,4.40
2022-08-01T14:48:28.354Z,3.92
2022-08-01T14:50:57.638Z,4.13
2022-08-01T14:53:24.806Z,3.58
2022-08-01T14:55:51.932Z,3.50
2022-08-01T14:58:19.150Z,3.92
2022-08-01T15:00:46.484Z,5.18
2022-08-01T15:03:13.651Z,8.30
2022-08-01T15:05:40.815Z,5.65
2022-08-01T15:08:08.201Z,5.47
2022-08-01T15:10:35.380Z,6.50
2022-08-01T15:13:02.743Z,16.23
2022-08-01T15:15:30.046Z,4.70
2022-08-01T15:17:57.230Z,4.63
2022-08-01T15:20:24.447Z,5.40
2022-08-01T15:22:51.647Z,4.05
2022-08-01T15:25:18.890Z,4.57
2022-08-01T15:27:46.025Z,4.28
2022-08-01T15:30:13.263Z,3.88
2022-08-01T15:32:40.429Z,4.07
2022-08-01T15:35:08.030Z,3.67
2022-08-01T15:37:38.405Z,5.35
2022-08-01T15:40:08.315Z,11.63
2022-08-01T15:42:35.899Z,5.68
2022-08-01T15:45:03.156Z,3.85
2022-08-01T15:47:31.187Z,4.30
2022-08-01T15:50:00.559Z,5.47
2022-08-01T15:52:30.899Z,5.85
2022-08-01T15:54:59.112Z,3.75
2022-08-01T15:57:26.336Z,3.78
2022-08-01T15:59:53.478Z,5.22
2022-08-01T16:02:20.685Z,14.48
2022-08-01T16:04:48.230Z,6.30
2022-08-01T16:07:15.366Z,5.55
2022-08-01T16:09:42.480Z,5.32
2022-08-01T16:12:10.227Z,6.25
2022-08-01T16:14:37.527Z,4.63
2022-08-01T16:17:04.704Z,3.97
2022-08-01T16:19:31.984Z,4.28
2022-08-01T16:21:59.206Z,5.63
2022-08-01T16:24:29.156Z,4.10
2022-08-01T16:26:56.397Z,6.85
2022-08-01T16:29:23.688Z,203.43
2022-08-01T16:32:02.801Z,4.68
2022-08-01T16:34:30.700Z,4.63
2022-08-01T16:36:58.059Z,4.70
2022-08-01T16:39:25.614Z,4.97
2022-08-01T16:41:55.039Z,5.97
2022-08-01T16:44:28.622Z,6.38
2022-08-01T16:47:01.208Z,7.22
2022-08-01T16:49:28.402Z,6.85
2022-08-01T16:51:55.601Z,8.25
2022-08-01T16:54:25.221Z,9.10
2022-08-01T16:56:53.349Z,9.18
2022-08-01T16:59:20.486Z,7.85
2022-08-01T17:02:00.298Z,7.10
2022-08-01T17:04:31.230Z,7.32
2022-08-01T17:06:58.468Z,9.18
2022-08-01T17:09:25.744Z,7.28
2022-08-01T17:11:52.919Z,7.18
2022-08-01T17:14:20.112Z,7.38
2022-08-01T17:16:47.252Z,7.22
2022-08-01T17:19:15.002Z,7.90
2022-08-01T17:21:42.443Z,8.02
2022-08-01T17:24:09.860Z,7.75
2022-08-01T17:26:37.032Z,6.90
2022-08-01T17:29:04.395Z,6.70
2022-08-01T17:31:31.528Z,6.68
2022-08-01T17:33:58.708Z,6.95
2022-08-01T17:36:25.869Z,6.65
2022-08-01T17:38:53.007Z,7.90
2022-08-01T17:41:20.263Z,8.30
2022-08-01T17:43:47.550Z,7.63
2022-08-01T17:46:14.668Z,8.13
2022-08-01T17:48:41.834Z,7.72
2022-08-01T17:51:09.010Z,29.88
2022-08-01T17:53:36.196Z,11.13
2022-08-01T17:56:05.749Z,8.55
2022-08-01T17:58:50.822Z,8.38
2022-08-01T18:01:19.389Z,7.90
2022-08-01T18:03:46.667Z,9.73
2022-08-01T18:06:14.442Z,19.15
2022-08-01T18:08:42.904Z,16.45
2022-08-01T18:11:10.072Z,18.73
2022-08-01T18:13:40.600Z,15.80
2022-08-01T18:16:08.987Z,11.18
2022-08-01T18:18:36.523Z,11.60
2022-08-01T18:21:03.711Z,10.13
2022-08-01T18:23:30.858Z,9.68
2022-08-01T18:26:01.403Z,11.93
2022-08-01T18:28:31.669Z,8.52
2022-08-01T18:31:02.549Z,8.43
2022-08-01T18:33:29.676Z,11.98
2022-08-01T18:36:01.746Z,9.48
2022-08-01T18:38:32.798Z,9.00
2022-08-01T18:41:00.539Z,10.07
2022-08-01T18:43:27.675Z,11.57
2022-08-01T18:45:57.305Z,15.77
2022-08-01T18:48:24.649Z,15.65
2022-08-01T18:50:53.809Z,13.43
2022-08-01T18:53:22.349Z,12.65
2022-08-01T18:55:49.469Z,13.02
2022-08-01T18:58:16.597Z,8.60
2022-08-01T19:00:43.757Z,8.93
2022-08-01T19:03:11.008Z,8.20
2022-08-01T19:05:38.144Z,8.40
2022-08-01T19:08:07.766Z,8.80
2022-08-01T19:10:39.318Z,8.23
2022-08-01T19:13:07.757Z,8.57
2022-08-01T19:15:35.209Z,9.43
2022-08-01T19:18:03.029Z,9.10
2022-08-01T19:20:30.525Z,9.25
2022-08-01T19:22:57.735Z,11.73
2022-08-01T19:25:24.906Z,12.35
2022-08-01T19:27:52.102Z,11.27
2022-08-01T19:30:19.415Z,11.30
2022-08-01T19:32:47.356Z,11.00
2022-08-01T19:35:15.136Z,10.55
2022-08-01T19:37:52.461Z,9.85
2022-08-01T19:40:26.200Z,10.45
2022-08-01T19:42:54.984Z,9.13
2022-08-01T19:45:22.587Z,8.20
2022-08-01T19:47:56.430Z,7.88
2022-08-01T19:50:24.144Z,9.02
2022-08-01T19:52:51.351Z,9.10
2022-08-01T19:55:18.451Z,10.35
2022-08-01T19:57:49.416Z,9.70
2022-08-01T20:00:28.239Z,9.70
2022-08-01T20:02:55.741Z,10.75
2022-08-01T20:05:25.742Z,11.00
2022-08-01T20:07:52.916Z,11.48
2022-08-01T20:10:23.302Z,10.60
2022-08-01T20:12:50.423Z,10.50
2022-08-01T20:15:17.566Z,11.88
2022-08-01T20:17:45.582Z,9.75
2022-08-01T20:20:12.846Z,9.57
2022-08-01T20:22:39.980Z,11.23
2022-08-01T20:25:07.392Z,33.75
2022-08-01T20:27:34.501Z,52.25
2022-08-01T20:30:01.738Z,46.45
2022-08-01T20:32:29.938Z,39.20
2022-08-01T20:34:57.058Z,34.38
2022-08-01T20:38:06.672Z,36.83
2022-08-01T20:40:12.334Z,31.40
2022-08-01T20:42:40.106Z,22.88
2022-08-01T20:45:07.473Z,23.73
2022-08-01T20:47:34.667Z,19.13
2022-08-01T20:50:52.046Z,16.73
2022-08-01T20:53:07.858Z,13.25
2022-08-01T20:55:42.053Z,13.60
2022-08-01T20:58:09.230Z,13.63
2022-08-01T21:00:38.264Z,15.05
2022-08-01T21:03:07.989Z,15.85
2022-08-01T21:05:38.948Z,12.57
2022-08-01T21:08:08.973Z,10.25
2022-08-01T21:10:36.426Z,11.52
2022-08-01T21:13:06.148Z,14.73
2022-08-01T21:15:34.377Z,16.70
2022-08-01T21:18:08.483Z,10.15
2022-08-01T21:20:35.871Z,11.50
2022-08-01T21:23:06.026Z,11.80
2022-08-01T21:25:36.233Z,9.35
2022-08-01T21:28:03.484Z,8.70
2022-08-01T21:30:30.980Z,8.93
2022-08-01T21:32:58.191Z,8.35
2022-08-01T21:35:26.371Z,8.52
2022-08-01T21:37:53.640Z,8.93
2022-08-01T21:40:24.045Z,9.30
2022-08-01T21:42:51.628Z,8.55
2022-08-01T21:45:20.731Z,9.85
2022-08-01T21:47:47.897Z,8.95
2022-08-01T21:50:15.067Z,12.50
2022-08-01T21:52:46.455Z,9.80
2022-08-01T21:55:17.774Z,10.52
2022-08-01T21:57:50.251Z,10.45
2022-08-01T22:00:25.729Z,11.43
2022-08-01T22:02:59.473Z,12.38
2022-08-01T22:05:42.624Z,13.63
2022-08-01T22:08:14.283Z,12.90
2022-08-01T22:10:41.475Z,12.60
2022-08-01T22:13:08.724Z,13.00
2022-08-01T22:15:45.145Z,11.60
2022-08-01T22:18:12.580Z,12.20
2022-08-01T22:20:39.720Z,12.45
2022-08-01T22:23:06.904Z,11.30
2022-08-01T22:25:34.160Z,10.93
2022-08-01T22:28:03.203Z,10.55
2022-08-01T22:30:39.406Z,11.40
2022-08-01T22:33:07.318Z,11.85
2022-08-01T22:35:42.555Z,11.77
2022-08-01T22:38:10.057Z,10.60
2022-08-01T22:40:37.296Z,12.25
2022-08-01T22:43:05.582Z,13.60
2022-08-01T22:45:48.741Z,13.88
2022-08-01T22:48:19.155Z,12.45
2022-08-01T22:50:47.072Z,12.98
2022-08-01T22:53:17.238Z,12.13
2022-08-01T22:55:59.590Z,12.25
2022-08-01T22:58:27.229Z,12.57
2022-08-01T23:00:54.774Z,11.93
2022-08-01T23:03:28.868Z,11.70
2022-08-01T23:05:56.021Z,11.40
2022-08-01T23:08:23.213Z,11.10
2022-08-01T23:10:50.375Z,11.18
2022-08-01T23:13:17.558Z,11.15
2022-08-01T23:15:52.342Z,10.50
2022-08-01T23:18:19.846Z,10.77
2022-08-01T23:20:46.975Z,10.82
2022-08-01T23:23:14.685Z,11.40
2022-08-01T23:25:41.892Z,11.32
2022-08-01T23:28:09.002Z,11.70
2022-08-01T23:30:36.183Z,13.23
2022-08-01T23:33:03.349Z,14.55
2022-08-01T23:35:30.725Z,11.02
2022-08-01T23:38:01.886Z,11.73
2022-08-01T23:40:29.780Z,11.27
2022-08-01T23:42:56.894Z,11.43
2022-08-01T23:45:24.227Z,12.25
2022-08-01T23:47:51.687Z,11.20
2022-08-01T23:50:18.872Z,14.73
2022-08-01T23:52:49.784Z,11.68
2022-08-01T23:55:18.151Z,12.43
2022-08-01T23:57:45.994Z,12.07
